sensor_id;sensor_type;location;lat;lon;timestamp;P1;durP1;ratioP1;P2;durP2;ratioP2
4078;SDS011;2054;47.858;11.156;2023-06-22T02:47:03;13.60;;;8.93;;
4078;SDS011;2054;47.858;11.156;2023-06-22T02:49:30;17.80;;;8.73;;
4078;SDS011;2054;47.858;11.156;2023-06-22T02:51:57;13.27;;;8.65;;
4078;SDS011;2054;47.858;11.156;2023-06-22T02:54:25;17.67;;;8.90;;
4078;SDS011;2054;47.858;11.156;2023-06-22T02:56:52;12.23;;;8.55;;
4078;SDS011;2054;47.858;11.156;2023-06-22T02:59:19;15.70;;;8.43;;
4078;SDS011;2054;47.858;11.156;2023-06-22T03:01:48;15.60;;;9.32;;
4078;SDS011;2054;47.858;11.156;2023-06-22T03:04:17;11.80;;;8.55;;
4078;SDS011;2054;47.858;11.156;2023-06-22T03:06:44;14.50;;;8.90;;
4078;SDS011;2054;47.858;11.156;2023-06-22T03:09:15;13.40;;;8.50;;
4078;SDS011;2054;47.858;11.156;2023-06-22T03:11:44;21.33;;;8.15;;
4078;SDS011;2054;47.858;11.156;2023-06-22T03:14:12;11.93;;;8.25;;
4078;SDS011;2054;47.858;11.156;2023-06-22T03:16:39;13.98;;;8.25;;
4078;SDS011;2054;47.858;11.156;2023-06-22T03:19:06;13.52;;;7.82;;
4078;SDS011;2054;47.858;11.156;2023-06-22T03:21:37;13.98;;;7.93;;
4078;SDS011;2054;47.858;11.156;2023-06-22T03:24:04;14.30;;;8.25;;
4078;SDS011;2054;47.858;11.156;2023-06-22T03:26:32;19.55;;;8.57;;
4078;SDS011;2054;47.858;11.156;2023-06-22T03:28:59;12.35;;;8.20;;
4078;SDS011;2054;47.858;11.156;2023-06-22T03:31:27;15.02;;;9.25;;
4078;SDS011;2054;47.858;11.156;2023-06-22T03:33:54;14.35;;;8.55;;
4078;SDS011;2054;47.858;11.156;2023-06-22T03:36:21;20.55;;;9.65;;
4078;SDS011;2054;47.858;11.156;2023-06-22T03:38:50;13.50;;;8.05;;
4078;SDS011;2054;47.858;11.156;2023-06-22T03:41:17;12.93;;;8.60;;
4078;SDS011;2054;47.858;11.156;2023-06-22T03:43:44;14.50;;;9.07;;
4078;SDS011;2054;47.858;11.156;2023-06-22T03:46:12;14.27;;;8.57;;
4078;SDS011;2054;47.858;11.156;2023-06-22T03:48:40;14.25;;;8.82;;
4078;SDS011;2054;47.858;11.156;2023-06-22T03:51:07;18.17;;;8.55;;
4078;SDS011;2054;47.858;11.156;2023-06-22T03:53:34;12.68;;;8.20;;
4078;SDS011;2054;47.858;11.156;2023-06-22T03:56:03;17.50;;;9.80;;
4078;SDS011;2054;47.858;11.156;2023-06-22T03:58:30;15.30;;;8.52;;
4078;SDS011;2054;47.858;11.156;2023-06-22T04:00:58;14.73;;;9.25;;
4078;SDS011;2054;47.858;11.156;2023-06-22T04:03:26;20.83;;;9.73;;
4078;SDS011;2054;47.858;11.156;2023-06-22T04:05:53;15.90;;;10.20;;
4078;SDS011;2054;47.858;11.156;2023-06-22T04:08:20;16.80;;;9.15;;
4078;SDS011;2054;47.858;11.156;2023-06-22T04:10:47;18.15;;;10.20;;
4078;SDS011;2054;47.858;11.156;2023-06-22T04:13:16;14.98;;;8.82;;
4078;SDS011;2054;47.858;11.156;2023-06-22T04:15:44;17.15;;;8.80;;
4078;SDS011;2054;47.858;11.156;2023-06-22T04:18:14;14.80;;;8.55;;
4078;SDS011;2054;47.858;11.156;2023-06-22T04:20:42;14.77;;;8.98;;
4078;SDS011;2054;47.858;11.156;2023-06-22T04:23:10;17.98;;;10.80;;
4078;SDS011;2054;47.858;11.156;2023-06-22T04:25:42;15.10;;;9.10;;
4078;SDS011;2054;47.858;11.156;2023-06-22T04:28:09;16.17;;;9.70;;
4078;SDS011;2054;47.858;11.156;2023-06-22T04:30:39;16.10;;;9.80;;
4078;SDS011;2054;47.858;11.156;2023-06-22T04:33:11;12.43;;;7.85;;
4078;SDS011;2054;47.858;11.156;2023-06-22T04:35:38;15.82;;;8.75;;
4078;SDS011;2054;47.858;11.156;2023-06-22T04:38:06;13.32;;;8.85;;
4078;SDS011;2054;47.858;11.156;2023-06-22T04:40:34;15.10;;;9.02;;
4078;SDS011;2054;47.858;11.156;2023-06-22T04:43:01;12.15;;;8.68;;
4078;SDS011;2054;47.858;11.156;2023-06-22T04:45:28;17.45;;;8.95;;
4078;SDS011;2054;47.858;11.156;2023-06-22T04:47:57;10.77;;;7.97;;
4078;SDS011;2054;47.858;11.156;2023-06-22T04:50:24;15.00;;;8.57;;
4078;SDS011;2054;47.858;11.156;2023-06-22T04:52:52;15.55;;;9.05;;
4078;SDS011;2054;47.858;11.156;2023-06-22T04:55:19;15.05;;;8.40;;
4078;SDS011;2054;47.858;11.156;2023-06-22T04:57:46;17.48;;;9.90;;
4078;SDS011;2054;47.858;11.156;2023-06-22T05:00:14;15.20;;;9.13;;
4078;SDS011;2054;47.858;11.156;2023-06-22T05:02:43;17.70;;;9.82;;
4078;SDS011;2054;47.858;11.156;2023-06-22T05:05:12;16.48;;;8.98;;
4078;SDS011;2054;47.858;11.156;2023-06-22T05:07:41;14.80;;;9.73;;
4078;SDS011;2054;47.858;11.156;2023-06-22T05:10:09;15.50;;;9.48;;
4078;SDS011;2054;47.858;11.156;2023-06-22T05:12:37;18.35;;;9.38;;
4078;SDS011;2054;47.858;11.156;2023-06-22T05:15:05;19.30;;;8.73;;
4078;SDS011;2054;47.858;11.156;2023-06-22T05:17:32;15.85;;;9.93;;
4078;SDS011;2054;47.858;11.156;2023-06-22T05:20:00;15.80;;;9.10;;
4078;SDS011;2054;47.858;11.156;2023-06-22T05:22:31;14.90;;;9.88;;
4078;SDS011;2054;47.858;11.156;2023-06-22T05:24:59;13.90;;;9.02;;
4078;SDS011;2054;47.858;11.156;2023-06-22T05:27:26;11.65;;;8.55;;
4078;SDS011;2054;47.858;11.156;2023-06-22T05:29:53;15.25;;;8.80;;
4078;SDS011;2054;47.858;11.156;2023-06-22T05:32:20;13.82;;;8.13;;
4078;SDS011;2054;47.858;11.156;2023-06-22T05:34:48;13.32;;;8.43;;
4078;SDS011;2054;47.858;11.156;2023-06-22T05:37:15;11.02;;;8.10;;
4078;SDS011;2054;47.858;11.156;2023-06-22T05:39:44;16.08;;;9.45;;
4078;SDS011;2054;47.858;11.156;2023-06-22T05:42:11;14.85;;;8.32;;
4078;SDS011;2054;47.858;11.156;2023-06-22T05:44:38;15.68;;;8.73;;
4078;SDS011;2054;47.858;11.156;2023-06-22T05:47:06;12.35;;;8.65;;
4078;SDS011;2054;47.858;11.156;2023-06-22T05:49:33;15.35;;;8.98;;
4078;SDS011;2054;47.858;11.156;2023-06-22T05:52:00;19.30;;;9.32;;
4078;SDS011;2054;47.858;11.156;2023-06-22T05:54:28;16.40;;;8.10;;
4078;SDS011;2054;47.858;11.156;2023-06-22T05:56:56;15.15;;;8.45;;
4078;SDS011;2054;47.858;11.156;2023-06-22T05:59:24;14.30;;;8.57;;
4078;SDS011;2054;47.858;11.156;2023-06-22T06:01:51;14.20;;;8.10;;
4078;SDS011;2054;47.858;11.156;2023-06-22T06:04:18;15.15;;;9.00;;
4078;SDS011;2054;47.858;11.156;2023-06-22T06:06:46;16.52;;;9.52;;
4078;SDS011;2054;47.858;11.156;2023-06-22T06:09:13;15.25;;;8.95;;
4078;SDS011;2054;47.858;11.156;2023-06-22T06:11:40;14.68;;;9.38;;
4078;SDS011;2054;47.858;11.156;2023-06-22T06:14:10;15.05;;;9.65;;
4078;SDS011;2054;47.858;11.156;2023-06-22T06:16:37;16.65;;;10.15;;
4078;SDS011;2054;47.858;11.156;2023-06-22T06:19:04;15.63;;;10.00;;
4078;SDS011;2054;47.858;11.156;2023-06-22T06:21:32;17.70;;;9.82;;
4078;SDS011;2054;47.858;11.156;2023-06-22T06:23:59;15.27;;;9.43;;
4078;SDS011;2054;47.858;11.156;2023-06-22T06:26:26;13.88;;;8.77;;
4078;SDS011;2054;47.858;11.156;2023-06-22T06:28:55;19.63;;;9.73;;
4078;SDS011;2054;47.858;11.156;2023-06-22T06:31:24;15.60;;;9.38;;
4078;SDS011;2054;47.858;11.156;2023-06-22T06:33:53;14.05;;;8.52;;
4078;SDS011;2054;47.858;11.156;2023-06-22T06:36:20;17.13;;;9.18;;
4078;SDS011;2054;47.858;11.156;2023-06-22T06:38:48;13.32;;;8.35;;
4078;SDS011;2054;47.858;11.156;2023-06-22T06:41:15;13.45;;;9.20;;
4078;SDS011;2054;47.858;11.156;2023-06-22T06:43:43;16.35;;;8.05;;
4078;SDS011;2054;47.858;11.156;2023-06-22T06:46:10;15.35;;;8.45;;
4078;SDS011;2054;47.858;11.156;2023-06-22T06:48:39;15.18;;;8.35;;
4078;SDS011;2054;47.858;11.156;2023-06-22T06:51:06;16.00;;;7.95;;
4078;SDS011;2054;47.858;11.156;2023-06-22T06:53:35;15.75;;;9.05;;
4078;SDS011;2054;47.858;11.156;2023-06-22T06:56:02;16.88;;;9.93;;
4078;SDS011;2054;47.858;11.156;2023-06-22T06:58:30;18.00;;;10.40;;
4078;SDS011;2054;47.858;11.156;2023-06-22T07:00:57;15.48;;;9.68;;
4078;SDS011;2054;47.858;11.156;2023-06-22T07:03:25;13.60;;;9.63;;
4078;SDS011;2054;47.858;11.156;2023-06-22T07:05:53;15.75;;;9.10;;
4078;SDS011;2054;47.858;11.156;2023-06-22T07:08:21;14.75;;;9.65;;
4078;SDS011;2054;47.858;11.156;2023-06-22T07:10:48;18.05;;;9.63;;
4078;SDS011;2054;47.858;11.156;2023-06-22T07:13:16;18.42;;;9.52;;
4078;SDS011;2054;47.858;11.156;2023-06-22T07:15:43;13.90;;;9.35;;
4078;SDS011;2054;47.858;11.156;2023-06-22T07:18:11;18.02;;;10.45;;
4078;SDS011;2054;47.858;11.156;2023-06-22T07:20:38;17.42;;;9.23;;
4078;SDS011;2054;47.858;11.156;2023-06-22T07:23:07;17.63;;;9.57;;
4078;SDS011;2054;47.858;11.156;2023-06-22T07:25:35;15.40;;;9.05;;
4078;SDS011;2054;47.858;11.156;2023-06-22T07:28:03;15.82;;;9.35;;
4078;SDS011;2054;47.858;11.156;2023-06-22T07:30:31;19.75;;;9.90;;
4078;SDS011;2054;47.858;11.156;2023-06-22T07:32:59;20.23;;;9.20;;
4078;SDS011;2054;47.858;11.156;2023-06-22T07:35:29;17.98;;;9.55;;
4078;SDS011;2054;47.858;11.156;2023-06-22T07:37:56;17.17;;;10.18;;
4078;SDS011;2054;47.858;11.156;2023-06-22T07:40:25;19.70;;;11.05;;
4078;SDS011;2054;47.858;11.156;2023-06-22T07:42:53;17.80;;;9.68;;
4078;SDS011;2054;47.858;11.156;2023-06-22T07:45:20;18.60;;;10.05;;
4078;SDS011;2054;47.858;11.156;2023-06-22T07:47:48;18.58;;;10.63;;
4078;SDS011;2054;47.858;11.156;2023-06-22T07:50:15;19.92;;;10.73;;
4078;SDS011;2054;47.858;11.156;2023-06-22T07:52:43;19.50;;;11.10;;
4078;SDS011;2054;47.858;11.156;2023-06-22T07:55:11;24.40;;;11.52;;
4078;SDS011;2054;47.858;11.156;2023-06-22T07:57:40;16.33;;;10.50;;
4078;SDS011;2054;47.858;11.156;2023-06-22T08:00:07;17.25;;;10.20;;
4078;SDS011;2054;47.858;11.156;2023-06-22T08:02:37;19.17;;;12.10;;
4078;SDS011;2054;47.858;11.156;2023-06-22T08:05:05;18.35;;;10.82;;
4078;SDS011;2054;47.858;11.156;2023-06-22T08:07:33;19.45;;;10.63;;
4078;SDS011;2054;47.858;11.156;2023-06-22T08:10:02;21.65;;;10.90;;
4078;SDS011;2054;47.858;11.156;2023-06-22T08:12:30;21.77;;;10.48;;
4078;SDS011;2054;47.858;11.156;2023-06-22T08:14:59;20.08;;;10.82;;
4078;SDS011;2054;47.858;11.156;2023-06-22T08:17:26;19.88;;;10.75;;
4078;SDS011;2054;47.858;11.156;2023-06-22T08:19:54;16.15;;;10.50;;
4078;SDS011;2054;47.858;11.156;2023-06-22T08:22:21;17.92;;;9.85;;
4078;SDS011;2054;47.858;11.156;2023-06-22T08:24:49;17.77;;;10.10;;
4078;SDS011;2054;47.858;11.156;2023-06-22T08:27:16;21.23;;;9.93;;
4078;SDS011;2054;47.858;11.156;2023-06-22T08:29:46;18.20;;;9.85;;
4078;SDS011;2054;47.858;11.156;2023-06-22T08:32:16;21.42;;;9.70;;
4078;SDS011;2054;47.858;11.156;2023-06-22T08:34:43;15.63;;;9.55;;
4078;SDS011;2054;47.858;11.156;2023-06-22T08:37:11;20.58;;;9.13;;
4078;SDS011;2054;47.858;11.156;2023-06-22T08:39:38;14.82;;;8.77;;
4078;SDS011;2054;47.858;11.156;2023-06-22T08:42:06;19.42;;;9.63;;
4078;SDS011;2054;47.858;11.156;2023-06-22T08:44:34;16.15;;;9.00;;
4078;SDS011;2054;47.858;11.156;2023-06-22T08:47:01;17.30;;;9.18;;
4078;SDS011;2054;47.858;11.156;2023-06-22T08:49:30;19.00;;;8.80;;
4078;SDS011;2054;47.858;11.156;2023-06-22T08:51:57;14.32;;;9.13;;
4078;SDS011;2054;47.858;11.156;2023-06-22T08:54:25;12.55;;;8.73;;
4078;SDS011;2054;47.858;11.156;2023-06-22T08:56:52;14.75;;;8.90;;
4078;SDS011;2054;47.858;11.156;2023-06-22T08:59:19;12.02;;;8.35;;
4078;SDS011;2054;47.858;11.156;2023-06-22T09:01:47;15.82;;;8.68;;
4078;SDS011;2054;47.858;11.156;2023-06-22T09:04:14;15.65;;;8.98;;
4078;SDS011;2054;47.858;11.156;2023-06-22T09:06:43;16.33;;;9.00;;
4078;SDS011;2054;47.858;11.156;2023-06-22T09:09:11;16.80;;;8.38;;
4078;SDS011;2054;47.858;11.156;2023-06-22T09:11:39;14.80;;;8.68;;
4078;SDS011;2054;47.858;11.156;2023-06-22T09:14:07;19.27;;;9.27;;
4078;SDS011;2054;47.858;11.156;2023-06-22T09:16:34;16.10;;;9.18;;
4078;SDS011;2054;47.858;11.156;2023-06-22T09:19:01;13.70;;;8.27;;
4078;SDS011;2054;47.858;11.156;2023-06-22T09:21:29;14.63;;;8.68;;
4078;SDS011;2054;47.858;11.156;2023-06-22T09:23:58;15.57;;;8.90;;
4078;SDS011;2054;47.858;11.156;2023-06-22T09:26:26;13.35;;;8.57;;
4078;SDS011;2054;47.858;11.156;2023-06-22T09:28:53;14.98;;;8.77;;
4078;SDS011;2054;47.858;11.156;2023-06-22T09:31:20;16.98;;;8.65;;
4078;SDS011;2054;47.858;11.156;2023-06-22T09:33:50;18.13;;;8.90;;
4078;SDS011;2054;47.858;11.156;2023-06-22T09:36:18;12.70;;;8.70;;
4078;SDS011;2054;47.858;11.156;2023-06-22T09:38:45;18.60;;;8.85;;
4078;SDS011;2054;47.858;11.156;2023-06-22T09:41:14;18.50;;;8.80;;
4078;SDS011;2054;47.858;11.156;2023-06-22T09:43:42;15.15;;;8.85;;
4078;SDS011;2054;47.858;11.156;2023-06-22T09:46:10;14.43;;;8.13;;
4078;SDS011;2054;47.858;11.156;2023-06-22T09:48:37;16.10;;;9.00;;
4078;SDS011;2054;47.858;11.156;2023-06-22T09:51:06;16.73;;;8.10;;
4078;SDS011;2054;47.858;11.156;2023-06-22T09:53:33;25.35;;;9.70;;
4078;SDS011;2054;47.858;11.156;2023-06-22T09:56:02;15.63;;;8.48;;
4078;SDS011;2054;47.858;11.156;2023-06-22T09:58:32;15.50;;;8.63;;
4078;SDS011;2054;47.858;11.156;2023-06-22T10:01:00;21.00;;;8.88;;
4078;SDS011;2054;47.858;11.156;2023-06-22T10:03:27;17.58;;;8.75;;
4078;SDS011;2054;47.858;11.156;2023-06-22T10:05:54;18.95;;;8.48;;
4078;SDS011;2054;47.858;11.156;2023-06-22T10:08:24;15.02;;;8.75;;
4078;SDS011;2054;47.858;11.156;2023-06-22T10:10:51;15.90;;;9.05;;
4078;SDS011;2054;47.858;11.156;2023-06-22T10:13:20;16.90;;;9.23;;
4078;SDS011;2054;47.858;11.156;2023-06-22T10:15:49;17.70;;;8.40;;
4078;SDS011;2054;47.858;11.156;2023-06-22T10:18:17;16.55;;;8.20;;
4078;SDS011;2054;47.858;11.156;2023-06-22T10:20:47;19.45;;;8.55;;
4078;SDS011;2054;47.858;11.156;2023-06-22T10:23:15;17.00;;;9.20;;
4078;SDS011;2054;47.858;11.156;2023-06-22T10:25:45;16.90;;;8.55;;
4078;SDS011;2054;47.858;11.156;2023-06-22T10:28:12;24.50;;;8.93;;
4078;SDS011;2054;47.858;11.156;2023-06-22T10:30:40;15.80;;;8.40;;
4078;SDS011;2054;47.858;11.156;2023-06-22T10:33:09;21.65;;;9.55;;
4078;SDS011;2054;47.858;11.156;2023-06-22T10:35:37;17.58;;;8.52;;
4078;SDS011;2054;47.858;11.156;2023-06-22T10:38:04;15.57;;;8.55;;
4078;SDS011;2054;47.858;11.156;2023-06-22T10:40:32;16.88;;;9.23;;
4078;SDS011;2054;47.858;11.156;2023-06-22T10:43:00;20.55;;;8.90;;
4078;SDS011;2054;47.858;11.156;2023-06-22T10:45:27;19.92;;;8.70;;
4078;SDS011;2054;47.858;11.156;2023-06-22T10:47:55;14.05;;;8.60;;
4078;SDS011;2054;47.858;11.156;2023-06-22T10:50:24;15.13;;;8.50;;
4078;SDS011;2054;47.858;11.156;2023-06-22T10:52:51;15.50;;;8.40;;
4078;SDS011;2054;47.858;11.156;2023-06-22T10:55:19;17.13;;;8.77;;
4078;SDS011;2054;47.858;11.156;2023-06-22T10:57:46;15.55;;;9.15;;
4078;SDS011;2054;47.858;11.156;2023-06-22T11:00:15;17.95;;;8.23;;
4078;SDS011;2054;47.858;11.156;2023-06-22T11:02:42;15.05;;;8.10;;
4078;SDS011;2054;47.858;11.156;2023-06-22T11:05:10;14.20;;;8.65;;
4078;SDS011;2054;47.858;11.156;2023-06-22T11:07:39;17.48;;;9.43;;
4078;SDS011;2054;47.858;11.156;2023-06-22T11:10:08;17.88;;;9.20;;
4078;SDS011;2054;47.858;11.156;2023-06-22T11:12:35;18.60;;;9.90;;
4078;SDS011;2054;47.858;11.156;2023-06-22T11:15:03;17.48;;;8.40;;
4078;SDS011;2054;47.858;11.156;2023-06-22T11:17:31;19.48;;;9.52;;
4078;SDS011;2054;47.858;11.156;2023-06-22T11:19:58;16.92;;;8.27;;
4078;SDS011;2054;47.858;11.156;2023-06-22T11:22:26;19.38;;;9.10;;
4078;SDS011;2054;47.858;11.156;2023-06-22T11:25:04;15.98;;;8.57;;
4078;SDS011;2054;47.858;11.156;2023-06-22T11:27:33;17.40;;;9.07;;
4078;SDS011;2054;47.858;11.156;2023-06-22T11:30:00;15.98;;;8.68;;
4078;SDS011;2054;47.858;11.156;2023-06-22T11:32:27;15.75;;;9.70;;
4078;SDS011;2054;47.858;11.156;2023-06-22T11:34:56;22.17;;;9.15;;
4078;SDS011;2054;47.858;11.156;2023-06-22T11:37:23;16.20;;;8.88;;
4078;SDS011;2054;47.858;11.156;2023-06-22T11:39:51;14.13;;;8.32;;
4078;SDS011;2054;47.858;11.156;2023-06-22T11:42:21;19.42;;;8.88;;
4078;SDS011;2054;47.858;11.156;2023-06-22T11:44:50;24.65;;;10.02;;
4078;SDS011;2054;47.858;11.156;2023-06-22T11:47:18;17.85;;;9.13;;
4078;SDS011;2054;47.858;11.156;2023-06-22T11:49:45;20.25;;;9.55;;
4078;SDS011;2054;47.858;11.156;2023-06-22T11:52:13;19.50;;;9.40;;
4078;SDS011;2054;47.858;11.156;2023-06-22T11:54:42;18.30;;;8.73;;
4078;SDS011;2054;47.858;11.156;2023-06-22T11:57:10;17.10;;;8.68;;
4078;SDS011;2054;47.858;11.156;2023-06-22T11:59:40;21.67;;;9.00;;
4078;SDS011;2054;47.858;11.156;2023-06-22T12:02:07;17.05;;;9.27;;
4078;SDS011;2054;47.858;11.156;2023-06-22T12:04:35;14.68;;;8.52;;
4078;SDS011;2054;47.858;11.156;2023-06-22T12:07:03;17.20;;;8.50;;
4078;SDS011;2054;47.858;11.156;2023-06-22T12:09:30;23.30;;;9.43;;
4078;SDS011;2054;47.858;11.156;2023-06-22T12:11:58;16.50;;;8.48;;
4078;SDS011;2054;47.858;11.156;2023-06-22T12:14:25;19.00;;;8.35;;
4078;SDS011;2054;47.858;11.156;2023-06-22T12:16:54;20.25;;;9.18;;
4078;SDS011;2054;47.858;11.156;2023-06-22T12:19:22;18.40;;;9.13;;
4078;SDS011;2054;47.858;11.156;2023-06-22T12:21:49;15.82;;;8.85;;
4078;SDS011;2054;47.858;11.156;2023-06-22T12:24:16;17.35;;;9.27;;
4078;SDS011;2054;47.858;11.156;2023-06-22T12:26:43;18.48;;;9.43;;
4078;SDS011;2054;47.858;11.156;2023-06-22T12:29:11;18.95;;;8.23;;
4078;SDS011;2054;47.858;11.156;2023-06-22T12:31:38;20.30;;;8.90;;
4078;SDS011;2054;47.858;11.156;2023-06-22T12:34:08;16.73;;;7.97;;
4078;SDS011;2054;47.858;11.156;2023-06-22T12:36:36;17.30;;;8.65;;
4078;SDS011;2054;47.858;11.156;2023-06-22T12:39:03;19.40;;;8.60;;
4078;SDS011;2054;47.858;11.156;2023-06-22T12:41:31;17.60;;;8.05;;
4078;SDS011;2054;47.858;11.156;2023-06-22T12:43:58;20.58;;;9.98;;
4078;SDS011;2054;47.858;11.156;2023-06-22T12:46:26;18.30;;;8.85;;
4078;SDS011;2054;47.858;11.156;2023-06-22T12:48:55;14.18;;;7.75;;
4078;SDS011;2054;47.858;11.156;2023-06-22T12:51:23;22.02;;;8.20;;
4078;SDS011;2054;47.858;11.156;2023-06-22T12:53:51;16.45;;;7.82;;
4078;SDS011;2054;47.858;11.156;2023-06-22T12:56:18;19.17;;;7.60;;
4078;SDS011;2054;47.858;11.156;2023-06-22T12:58:46;14.70;;;8.00;;
4078;SDS011;2054;47.858;11.156;2023-06-22T13:01:13;18.67;;;7.70;;
4078;SDS011;2054;47.858;11.156;2023-06-22T13:03:41;15.63;;;7.70;;
4078;SDS011;2054;47.858;11.156;2023-06-22T13:06:09;19.92;;;7.78;;
4078;SDS011;2054;47.858;11.156;2023-06-22T13:08:37;19.52;;;7.70;;
4078;SDS011;2054;47.858;11.156;2023-06-22T13:11:05;18.40;;;7.70;;
4078;SDS011;2054;47.858;11.156;2023-06-22T13:13:32;17.35;;;7.50;;
4078;SDS011;2054;47.858;11.156;2023-06-22T13:16:02;19.10;;;7.30;;
4078;SDS011;2054;47.858;11.156;2023-06-22T13:18:29;15.40;;;7.93;;
4078;SDS011;2054;47.858;11.156;2023-06-22T13:20:58;21.85;;;8.05;;
4078;SDS011;2054;47.858;11.156;2023-06-22T13:23:25;21.58;;;7.40;;
4078;SDS011;2054;47.858;11.156;2023-06-22T13:25:54;20.63;;;7.07;;
4078;SDS011;2054;47.858;11.156;2023-06-22T13:28:22;17.13;;;7.22;;
4078;SDS011;2054;47.858;11.156;2023-06-22T13:30:49;19.02;;;7.57;;
4078;SDS011;2054;47.858;11.156;2023-06-22T13:33:17;19.58;;;7.78;;
4078;SDS011;2054;47.858;11.156;2023-06-22T13:35:44;19.10;;;7.63;;
4078;SDS011;2054;47.858;11.156;2023-06-22T13:38:12;18.77;;;7.85;;
4078;SDS011;2054;47.858;11.156;2023-06-22T13:40:39;16.45;;;7.90;;
4078;SDS011;2054;47.858;11.156;2023-06-22T13:43:08;17.92;;;8.38;;
4078;SDS011;2054;47.858;11.156;2023-06-22T13:45:35;23.73;;;8.52;;
4078;SDS011;2054;47.858;11.156;2023-06-22T13:48:03;17.13;;;8.07;;
4078;SDS011;2054;47.858;11.156;2023-06-22T13:50:30;17.23;;;7.60;;
4078;SDS011;2054;47.858;11.156;2023-06-22T13:52:57;20.13;;;7.57;;
4078;SDS011;2054;47.858;11.156;2023-06-22T13:55:25;18.90;;;7.20;;
4078;SDS011;2054;47.858;11.156;2023-06-22T13:57:52;16.55;;;7.18;;
4078;SDS011;2054;47.858;11.156;2023-06-22T14:00:21;19.02;;;8.20;;
4078;SDS011;2054;47.858;11.156;2023-06-22T14:02:48;19.92;;;8.38;;
4078;SDS011;2054;47.858;11.156;2023-06-22T14:05:16;17.33;;;7.72;;
4078;SDS011;2054;47.858;11.156;2023-06-22T14:07:44;18.27;;;7.60;;
4078;SDS011;2054;47.858;11.156;2023-06-22T14:10:11;17.98;;;8.10;;
4078;SDS011;2054;47.858;11.156;2023-06-22T14:12:38;20.75;;;7.68;;
4078;SDS011;2054;47.858;11.156;2023-06-22T14:15:06;13.25;;;7.80;;
4078;SDS011;2054;47.858;11.156;2023-06-22T14:17:35;25.63;;;8.00;;
4078;SDS011;2054;47.858;11.156;2023-06-22T14:20:03;14.02;;;7.70;;
4078;SDS011;2054;47.858;11.156;2023-06-22T14:22:33;17.27;;;8.20;;
4078;SDS011;2054;47.858;11.156;2023-06-22T14:25:01;17.67;;;8.05;;
4078;SDS011;2054;47.858;11.156;2023-06-22T14:27:28;20.58;;;8.25;;
4078;SDS011;2054;47.858;11.156;2023-06-22T14:29:55;21.08;;;8.40;;
4078;SDS011;2054;47.858;11.156;2023-06-22T14:32:23;22.10;;;8.85;;
4078;SDS011;2054;47.858;11.156;2023-06-22T14:34:52;15.70;;;7.72;;
4078;SDS011;2054;47.858;11.156;2023-06-22T14:37:19;19.13;;;9.02;;
4078;SDS011;2054;47.858;11.156;2023-06-22T14:39:46;15.43;;;8.82;;
4078;SDS011;2054;47.858;11.156;2023-06-22T14:42:14;21.63;;;8.93;;
4078;SDS011;2054;47.858;11.156;2023-06-22T14:44:41;22.33;;;8.10;;
4078;SDS011;2054;47.858;11.156;2023-06-22T14:47:10;16.52;;;8.10;;
4078;SDS011;2054;47.858;11.156;2023-06-22T14:49:37;15.98;;;7.38;;
4078;SDS011;2054;47.858;11.156;2023-06-22T14:52:07;16.20;;;7.60;;
4078;SDS011;2054;47.858;11.156;2023-06-22T14:54:35;18.08;;;7.80;;
4078;SDS011;2054;47.858;11.156;2023-06-22T14:57:02;15.45;;;8.10;;
4078;SDS011;2054;47.858;11.156;2023-06-22T14:59:30;18.10;;;7.72;;
4078;SDS011;2054;47.858;11.156;2023-06-22T15:01:57;16.92;;;8.23;;
4078;SDS011;2054;47.858;11.156;2023-06-22T15:04:24;19.30;;;7.57;;
4078;SDS011;2054;47.858;11.156;2023-06-22T15:06:56;16.23;;;7.97;;
4078;SDS011;2054;47.858;11.156;2023-06-22T15:09:26;17.58;;;7.82;;
4078;SDS011;2054;47.858;11.156;2023-06-22T15:11:53;16.48;;;7.78;;
4078;SDS011;2054;47.858;11.156;2023-06-22T15:14:20;12.40;;;7.45;;
4078;SDS011;2054;47.858;11.156;2023-06-22T15:16:47;18.25;;;7.57;;
4078;SDS011;2054;47.858;11.156;2023-06-22T15:19:15;15.52;;;7.80;;
4078;SDS011;2054;47.858;11.156;2023-06-22T15:21:42;23.48;;;8.52;;
4078;SDS011;2054;47.858;11.156;2023-06-22T15:24:10;17.63;;;7.93;;
4078;SDS011;2054;47.858;11.156;2023-06-22T15:26:39;14.70;;;7.72;;
4078;SDS011;2054;47.858;11.156;2023-06-22T15:29:07;18.42;;;8.02;;
4078;SDS011;2054;47.858;11.156;2023-06-22T15:31:34;17.65;;;8.48;;
4078;SDS011;2054;47.858;11.156;2023-06-22T15:34:02;16.73;;;7.70;;
4078;SDS011;2054;47.858;11.156;2023-06-22T15:36:29;21.08;;;8.32;;
4078;SDS011;2054;47.858;11.156;2023-06-22T15:38:58;20.65;;;8.10;;
4078;SDS011;2054;47.858;11.156;2023-06-22T15:41:26;17.13;;;7.50;;
4078;SDS011;2054;47.858;11.156;2023-06-22T15:43:55;17.75;;;7.72;;
4078;SDS011;2054;47.858;11.156;2023-06-22T15:46:22;19.52;;;8.00;;
4078;SDS011;2054;47.858;11.156;2023-06-22T15:48:50;15.82;;;7.80;;
4078;SDS011;2054;47.858;11.156;2023-06-22T15:51:17;17.88;;;7.25;;
4078;SDS011;2054;47.858;11.156;2023-06-22T15:53:44;16.17;;;7.30;;
4078;SDS011;2054;47.858;11.156;2023-06-22T15:56:12;15.82;;;7.43;;
4078;SDS011;2054;47.858;11.156;2023-06-22T15:58:40;13.65;;;6.65;;
4078;SDS011;2054;47.858;11.156;2023-06-22T16:01:09;14.68;;;7.57;;
4078;SDS011;2054;47.858;11.156;2023-06-22T16:03:36;11.07;;;6.20;;
4078;SDS011;2054;47.858;11.156;2023-06-22T16:06:05;18.40;;;8.05;;
4078;SDS011;2054;47.858;11.156;2023-06-22T16:08:33;19.02;;;7.07;;
4078;SDS011;2054;47.858;11.156;2023-06-22T16:11:00;18.85;;;7.15;;
4078;SDS011;2054;47.858;11.156;2023-06-22T16:13:28;16.63;;;6.57;;
4078;SDS011;2054;47.858;11.156;2023-06-22T16:15:55;18.92;;;7.20;;
4078;SDS011;2054;47.858;11.156;2023-06-22T16:18:24;17.85;;;7.18;;
4078;SDS011;2054;47.858;11.156;2023-06-22T16:20:51;16.10;;;6.63;;
4078;SDS011;2054;47.858;11.156;2023-06-22T16:23:19;16.75;;;7.05;;
4078;SDS011;2054;47.858;11.156;2023-06-22T16:25:46;18.00;;;6.85;;
4078;SDS011;2054;47.858;11.156;2023-06-22T16:28:14;16.08;;;6.70;;
4078;SDS011;2054;47.858;11.156;2023-06-22T16:30:41;21.35;;;7.10;;
4078;SDS011;2054;47.858;11.156;2023-06-22T16:33:09;13.68;;;6.35;;
4078;SDS011;2054;47.858;11.156;2023-06-22T16:35:37;19.77;;;7.50;;
4078;SDS011;2054;47.858;11.156;2023-06-22T16:38:05;17.23;;;7.00;;
4078;SDS011;2054;47.858;11.156;2023-06-22T16:40:33;22.52;;;6.70;;
4078;SDS011;2054;47.858;11.156;2023-06-22T16:43:00;18.85;;;6.47;;
4078;SDS011;2054;47.858;11.156;2023-06-22T16:45:27;20.83;;;7.03;;
4078;SDS011;2054;47.858;11.156;2023-06-22T16:47:57;19.83;;;7.03;;
4078;SDS011;2054;47.858;11.156;2023-06-22T16:50:25;24.67;;;7.40;;
4078;SDS011;2054;47.858;11.156;2023-06-22T16:52:54;19.00;;;6.30;;
4078;SDS011;2054;47.858;11.156;2023-06-22T16:55:23;16.13;;;5.20;;
4078;SDS011;2054;47.858;11.156;2023-06-22T16:57:53;15.07;;;6.32;;
4078;SDS011;2054;47.858;11.156;2023-06-22T17:00:21;18.13;;;6.28;;
4078;SDS011;2054;47.858;11.156;2023-06-22T17:02:52;17.35;;;7.00;;
4078;SDS011;2054;47.858;11.156;2023-06-22T17:05:21;15.63;;;6.43;;
4078;SDS011;2054;47.858;11.156;2023-06-22T17:07:52;16.73;;;7.68;;
4078;SDS011;2054;47.858;11.156;2023-06-22T17:10:22;18.20;;;8.18;;
4078;SDS011;2054;47.858;11.156;2023-06-22T17:12:50;15.90;;;6.65;;
4078;SDS011;2054;47.858;11.156;2023-06-22T17:15:17;19.52;;;6.45;;
4078;SDS011;2054;47.858;11.156;2023-06-22T17:17:45;20.35;;;7.00;;
4078;SDS011;2054;47.858;11.156;2023-06-22T17:20:13;18.02;;;7.28;;
4078;SDS011;2054;47.858;11.156;2023-06-22T17:22:43;17.48;;;7.13;;
4078;SDS011;2054;47.858;11.156;2023-06-22T17:25:10;19.02;;;8.85;;
4078;SDS011;2054;47.858;11.156;2023-06-22T17:27:39;20.23;;;7.78;;
4078;SDS011;2054;47.858;11.156;2023-06-22T17:30:07;17.00;;;7.30;;
4078;SDS011;2054;47.858;11.156;2023-06-22T17:32:35;18.65;;;6.97;;
4078;SDS011;2054;47.858;11.156;2023-06-22T17:35:03;21.25;;;7.10;;